Time;durP1;ratioP1;P1;durP2;ratioP2;P2;SDS_P1;SDS_P2;PMS_P1;PMS_P2;Temp;Humidity;BMP_temperature;BMP_pressure;BME280_temperature;BME280_humidity;BME280_pressure;Samples;Min_cycle;Max_cycle;Signal;HPM_P1;HPM_P2
2023/02/14 00:00:44;;;;;;;33.30;10.00;;;9.80;48.00;;;;;;7566465;23;20013;-66
2023/02/14 00:03:45;;;;;;;22.17;9.00;;;9.80;48.10;;;;;;7564968;23;20022;-67
2023/02/14 00:06:47;;;;;;;19.00;8.30;;;9.70;48.90;;;;;;7541181;23;20428;-66
2023/02/14 00:09:48;;;;;;;23.52;8.50;;;9.70;48.50;;;;;;7566682;23;20006;-66
2023/02/14 00:12:49;;;;;;;34.80;9.68;;;9.60;48.60;;;;;;7568178;23;20021;-66
2023/02/14 00:15:50;;;;;;;23.15;9.27;;;9.50;48.70;;;;;;7567364;23;20163;-66
2023/02/14 00:19:03;;;;;;;24.63;9.32;;;9.50;48.90;;;;;;7568222;23;20483;-68
2023/02/14 00:22:04;;;;;;;23.52;9.25;;;9.40;49.00;;;;;;7568512;23;20006;-65
2023/02/14 00:25:06;;;;;;;21.83;8.55;;;9.30;49.20;;;;;;7568469;23;20033;-66
2023/02/14 00:28:07;;;;;;;23.42;9.82;;;9.30;49.30;;;;;;7568444;23;20081;-67
2023/02/14 00:31:08;;;;;;;28.10;8.95;;;9.30;49.30;;;;;;7569623;23;20113;-66
2023/02/14 00:34:09;;;;;;;32.58;9.52;;;9.30;49.50;;;;;;7567810;23;20024;-66
2023/02/14 00:37:11;;;;;;;28.05;9.18;;;9.30;49.50;;;;;;7571318;23;20010;-68
2023/02/14 00:40:12;;;;;;;26.67;8.93;;;9.20;49.50;;;;;;7569202;23;20013;-66
2023/02/14 00:43:13;;;;;;;27.10;8.80;;;9.20;49.40;;;;;;7568771;23;20014;-66
2023/02/14 00:46:16;;;;;;;23.95;9.30;;;9.20;49.40;;;;;;7571576;23;20002;-66
2023/02/14 00:49:17;;;;;;;26.83;9.77;;;9.20;49.50;;;;;;7568962;23;20006;-65
2023/02/14 00:52:18;;;;;;;24.33;7.90;;;9.20;49.60;;;;;;7568012;23;20020;-65
2023/02/14 00:55:19;;;;;;;36.70;9.77;;;9.20;49.60;;;;;;7569986;23;20015;-64
2023/02/14 00:58:21;;;;;;;27.98;9.13;;;9.20;49.60;;;;;;7568045;23;20014;-66
2023/02/14 01:01:22;;;;;;;19.30;8.80;;;9.20;49.70;;;;;;7544838;23;20033;-66
2023/02/14 01:04:23;;;;;;;19.65;8.45;;;9.20;49.70;;;;;;7568616;23;20093;-66
2023/02/14 01:07:24;;;;;;;19.58;8.57;;;9.10;50.20;;;;;;7569541;23;20006;-66
2023/02/14 01:10:25;;;;;;;22.77;8.30;;;9.20;49.70;;;;;;7572397;23;20007;-65
2023/02/14 01:13:26;;;;;;;22.88;8.20;;;9.20;49.70;;;;;;7572525;23;20014;-66
2023/02/14 01:16:29;;;;;;;22.48;8.48;;;9.20;49.70;;;;;;7569894;23;20428;-68
2023/02/14 01:19:30;;;;;;;23.30;9.15;;;9.10;49.70;;;;;;7571012;23;20038;-66
2023/02/14 01:22:37;;;;;;;21.45;7.53;;;9.10;49.80;;;;;;7569988;23;20347;-65
2023/02/14 01:25:39;;;;;;;22.23;8.30;;;9.10;49.90;;;;;;7548068;23;20010;-67
2023/02/14 01:28:40;;;;;;;22.55;9.38;;;9.10;49.90;;;;;;7571102;23;20006;-65
2023/02/14 01:31:43;;;;;;;19.67;8.45;;;9.00;50.00;;;;;;7572686;23;20013;-66
2023/02/14 01:34:44;;;;;;;18.30;8.32;;;9.00;50.00;;;;;;7569590;23;20021;-66
2023/02/14 01:37:46;;;;;;;30.48;7.97;;;9.00;50.00;;;;;;7565576;23;20015;-67
2023/02/14 01:40:47;;;;;;;20.77;8.43;;;9.00;50.10;;;;;;7542402;23;20065;-65
2023/02/14 01:44:04;;;;;;;16.02;7.22;;;9.00;50.20;;;;;;7568039;23;20002;-66
2023/02/14 01:47:08;;;;;;;16.58;7.03;;;8.90;50.30;;;;;;7541698;23;20006;-65
2023/02/14 01:50:18;;;;;;;18.83;6.95;;;8.90;50.50;;;;;;7567679;23;20042;-65
2023/02/14 01:53:25;;;;;;;27.70;7.13;;;8.90;50.60;;;;;;7518092;23;20083;-65
2023/02/14 01:56:37;;;;;;;17.00;7.75;;;8.80;50.70;;;;;;7541788;23;20014;-66
2023/02/14 01:59:45;;;;;;;13.60;6.78;;;8.70;50.80;;;;;;7517099;23;20383;-67
2023/02/14 02:02:46;;;;;;;19.48;7.43;;;8.60;50.90;;;;;;7541701;23;20021;-65
2023/02/14 02:05:52;;;;;;;19.00;7.45;;;8.60;51.00;;;;;;7566919;23;20026;-66
2023/02/14 02:09:14;;;;;;;19.55;7.93;;;8.50;51.20;;;;;;7517343;23;20646;-65
2023/02/14 02:12:15;;;;;;;21.23;7.95;;;8.40;51.30;;;;;;7567348;23;20285;-66
2023/02/14 02:15:18;;;;;;;15.77;6.60;;;8.40;51.40;;;;;;7567151;23;20006;-66
2023/02/14 02:18:46;;;;;;;17.48;8.60;;;8.40;51.50;;;;;;7566665;23;20015;-66
2023/02/14 02:22:10;;;;;;;16.40;6.68;;;8.40;51.60;;;;;;7507663;23;20014;-67
2023/02/14 02:25:36;;;;;;;17.63;6.45;;;8.40;51.70;;;;;;7541874;23;20067;-66
2023/02/14 02:29:02;;;;;;;19.83;7.40;;;8.30;51.70;;;;;;7541811;23;20447;-67
2023/02/14 02:32:08;;;;;;;21.88;8.50;;;8.40;51.90;;;;;;7542878;23;20086;-66
2023/02/14 02:35:19;;;;;;;19.60;7.95;;;8.30;51.80;;;;;;7570807;23;20041;-65
2023/02/14 02:38:35;;;;;;;19.50;8.38;;;8.30;51.70;;;;;;7572491;23;20428;-65
2023/02/14 02:42:20;;;;;;;17.40;7.65;;;8.40;51.70;;;;;;7519557;23;20071;-66
2023/02/14 02:46:46;;;;;;;23.30;7.72;;;8.40;51.50;;;;;;7541381;23;20449;-67
2023/02/14 02:53:24;;;;;;;23.65;7.65;;;8.50;51.40;;;;;;7541090;23;20092;-67
2023/02/14 02:56:45;;;;;;;24.50;7.90;;;8.50;51.40;;;;;;7567054;23;20006;-66
2023/02/14 02:59:48;;;;;;;22.20;8.30;;;8.40;51.30;;;;;;7540683;23;20108;-67
2023/02/14 03:06:13;;;;;;;19.17;8.50;;;8.40;51.50;;;;;;7540958;23;20006;-66
2023/02/14 03:09:18;;;;;;;26.73;9.32;;;8.40;51.60;;;;;;7540996;23;20007;-67
2023/02/14 03:12:36;;;;;;;21.80;8.27;;;8.30;51.70;;;;;;7517156;23;20014;-67
2023/02/14 03:15:56;;;;;;;25.23;7.53;;;8.30;51.90;;;;;;7517440;23;20014;-66
2023/02/14 03:23:13;;;;;;;17.55;7.53;;;8.10;52.10;;;;;;7566604;23;20018;-66
2023/02/14 03:26:43;;;;;;;19.02;7.82;;;8.10;52.40;;;;;;7541111;23;20018;-66
2023/02/14 03:29:45;;;;;;;;;;;8.00;52.50;;;;;;7540939;23;20015;-65
2023/02/14 03:32:53;;;;;;;21.58;7.95;;;8.00;52.60;;;;;;7541351;23;19909;-68
2023/02/14 03:36:01;;;;;;;;;;;7.90;52.70;;;;;;7571512;23;20362;-65
2023/02/14 03:39:36;;;;;;;13.15;6.85;;;7.80;52.70;;;;;;7528359;23;19987;-66
2023/02/14 03:42:59;;;;;;;15.88;6.57;;;7.80;52.80;;;;;;7568153;23;20041;-67
2023/02/14 03:46:07;;;;;;;23.63;7.80;;;7.80;53.00;;;;;;7567348;23;20428;-66
2023/02/14 03:49:10;;;;;;;;;;;7.80;53.10;;;;;;7568009;23;20010;-66
2023/02/14 03:52:13;;;;;;;19.52;7.65;;;7.70;53.10;;;;;;7569124;23;19980;-65
2023/02/14 03:55:19;;;;;;;19.50;7.55;;;7.70;53.20;;;;;;7568830;23;20420;-67
2023/02/14 03:58:29;;;;;;;23.77;8.98;;;7.70;53.20;;;;;;7566764;23;20313;-65
2023/02/14 04:01:45;;;;;;;17.48;7.10;;;7.70;53.20;;;;;;7567099;23;20010;-67
2023/02/14 04:04:50;;;;;;;17.48;6.95;;;7.70;53.10;;;;;;7566729;23;20022;-66
2023/02/14 04:07:55;;;;;;;18.58;6.70;;;7.80;53.00;;;;;;7566907;23;20336;-66
2023/02/14 04:10:59;;;;;;;20.95;7.00;;;7.80;52.90;;;;;;7568558;23;20137;-65
2023/02/14 04:14:01;;;;;;;16.48;6.78;;;7.80;52.90;;;;;;7568439;23;20007;-66
2023/02/14 04:20:23;;;;;;;18.00;7.25;;;7.80;53.00;;;;;;7568440;23;20029;-68
2023/02/14 04:23:24;;;;;;;15.57;6.97;;;7.70;53.20;;;;;;7568459;23;20002;-66
2023/02/14 04:26:25;;;;;;;18.50;7.20;;;7.60;53.40;;;;;;7568332;23;20428;-67
2023/02/14 04:29:26;;;;;;;20.00;7.90;;;7.50;53.60;;;;;;7566288;23;20693;-66
2023/02/14 04:32:27;;;;;;;22.08;7.50;;;7.40;53.80;;;;;;7568360;23;20011;-65
2023/02/14 04:35:28;;;;;;;15.85;7.45;;;7.40;53.90;;;;;;7566451;23;20431;-68
2023/02/14 04:38:31;;;;;;;16.17;7.90;;;7.40;54.00;;;;;;7567612;23;20006;-67
2023/02/14 04:41:32;;;;;;;20.25;8.60;;;7.40;54.10;;;;;;7542991;23;20006;-67
2023/02/14 04:44:33;;;;;;;19.27;7.43;;;7.40;54.00;;;;;;7571917;23;20002;-66
2023/02/14 04:47:34;;;;;;;18.70;7.43;;;7.40;54.00;;;;;;7519830;23;20010;-67
2023/02/14 04:50:36;;;;;;;18.85;7.32;;;7.40;54.00;;;;;;7543710;23;20021;-66
2023/02/14 04:53:39;;;;;;;18.65;7.13;;;7.40;54.00;;;;;;7582160;23;20040;-65
2023/02/14 04:56:40;;;;;;;15.68;7.43;;;7.40;54.10;;;;;;7556482;23;20006;-65
2023/02/14 04:59:41;;;;;;;26.50;8.10;;;7.40;54.10;;;;;;7547321;23;20102;-67
2023/02/14 05:02:42;;;;;;;18.48;6.78;;;7.40;54.20;;;;;;7569447;23;20395;-66
2023/02/14 05:05:43;;;;;;;19.75;7.93;;;7.40;54.20;;;;;;7568024;23;20011;-67
2023/02/14 05:08:44;;;;;;;17.95;6.55;;;7.30;54.20;;;;;;7541766;23;20089;-67
2023/02/14 05:11:45;;;;;;;15.73;6.85;;;7.30;54.30;;;;;;7567962;23;20490;-67
2023/02/14 05:14:47;;;;;;;20.45;8.73;;;7.30;54.30;;;;;;7542574;23;20089;-66
2023/02/14 05:17:47;;;;;;;19.92;7.82;;;7.30;54.40;;;;;;7567258;23;20007;-66
2023/02/14 05:20:50;;;;;;;19.48;7.15;;;7.30;54.40;;;;;;7542141;23;20368;-65
2023/02/14 05:23:51;;;;;;;22.58;7.80;;;7.20;54.40;;;;;;7542148;23;20007;-65
2023/02/14 05:26:52;;;;;;;15.32;6.97;;;7.20;54.50;;;;;;7567508;23;20073;-66
2023/02/14 05:29:53;;;;;;;17.40;7.00;;;7.20;55.00;;;;;;7567104;23;20094;-66
2023/02/14 05:32:54;;;;;;;20.42;7.05;;;7.20;54.40;;;;;;7567694;23;20014;-66
2023/02/14 05:36:01;;;;;;;17.58;7.45;;;7.30;54.40;;;;;;7567503;23;20010;-66
2023/02/14 05:39:03;;;;;;;18.60;7.03;;;7.30;54.40;;;;;;7547902;23;20020;-66
2023/02/14 05:42:04;;;;;;;18.52;7.85;;;7.30;54.30;;;;;;7567411;23;20006;-66
2023/02/14 05:45:05;;;;;;;14.60;6.78;;;7.30;54.30;;;;;;7567237;23;20093;-67
2023/02/14 05:48:07;;;;;;;18.10;6.97;;;7.30;54.30;;;;;;7566950;23;20156;-68
2023/02/14 05:51:09;;;;;;;17.27;7.20;;;7.30;54.40;;;;;;7566133;23;20014;-67
2023/02/14 05:54:10;;;;;;;16.52;6.55;;;7.20;54.40;;;;;;7565646;23;20336;-66
2023/02/14 05:57:11;;;;;;;16.40;7.55;;;7.20;54.50;;;;;;7565332;23;20006;-67
2023/02/14 06:00:13;;;;;;;21.48;8.40;;;7.10;54.60;;;;;;7566822;23;20006;-65
2023/02/14 06:03:15;;;;;;;18.00;7.20;;;7.10;54.80;;;;;;7567360;23;20006;-69
2023/02/14 06:06:16;;;;;;;20.63;7.30;;;7.00;55.40;;;;;;7567262;23;20013;-69
2023/02/14 06:09:18;;;;;;;17.83;7.45;;;7.00;54.80;;;;;;7566793;23;20010;-67
2023/02/14 06:12:19;;;;;;;22.98;8.18;;;7.00;54.90;;;;;;7566895;23;20007;-66
2023/02/14 06:15:21;;;;;;;16.90;7.45;;;6.90;55.00;;;;;;7567223;23;20014;-66
2023/02/14 06:18:26;;;;;;;24.65;6.45;;;6.90;55.20;;;;;;7564852;23;20014;-65
2023/02/14 06:21:27;;;;;;;16.25;7.13;;;6.80;55.30;;;;;;7566929;23;20503;-67
2023/02/14 06:24:28;;;;;;;21.42;7.72;;;6.80;55.50;;;;;;7565694;23;20013;-66
2023/02/14 06:27:30;;;;;;;22.73;7.18;;;6.70;55.60;;;;;;7566979;23;20332;-66
2023/02/14 06:30:31;;;;;;;16.05;6.65;;;6.70;55.80;;;;;;7567789;23;20045;-66
2023/02/14 06:33:32;;;;;;;14.50;6.50;;;6.60;55.80;;;;;;7572417;23;20017;-67
2023/02/14 06:36:33;;;;;;;17.13;7.13;;;6.70;56.00;;;;;;7570634;23;20036;-68
2023/02/14 06:39:34;;;;;;;12.75;6.53;;;6.60;56.10;;;;;;7565167;23;20057;-66
2023/02/14 06:42:35;;;;;;;14.57;6.90;;;6.60;56.10;;;;;;7565481;23;20006;-67
2023/02/14 06:45:36;;;;;;;20.20;6.50;;;6.60;56.20;;;;;;7566983;23;20003;-69
2023/02/14 06:48:37;;;;;;;14.68;6.80;;;6.60;56.20;;;;;;7566556;23;20030;-67
2023/02/14 06:51:38;;;;;;;14.60;6.68;;;6.60;56.30;;;;;;7567269;23;20018;-66
2023/02/14 06:54:40;;;;;;;15.85;7.30;;;6.60;56.30;;;;;;7566866;23;20006;-66
2023/02/14 06:57:41;;;;;;;26.38;5.93;;;6.70;56.30;;;;;;7567041;23;20058;-66
2023/02/14 07:00:42;;;;;;;15.70;6.63;;;6.70;56.30;;;;;;7566660;23;20049;-67
2023/02/14 07:03:43;;;;;;;39.00;8.05;;;6.70;56.20;;;;;;7566893;23;20078;-66
2023/02/14 07:06:45;;;;;;;13.93;6.32;;;6.80;56.10;;;;;;7566907;23;20006;-67
2023/02/14 07:09:46;;;;;;;20.02;7.35;;;6.80;56.00;;;;;;7567174;23;20017;-67
2023/02/14 07:12:47;;;;;;;23.33;6.75;;;6.80;55.90;;;;;;7565398;23;20085;-67
2023/02/14 07:15:48;;;;;;;18.73;8.30;;;6.80;55.80;;;;;;7571808;23;20006;-66
2023/02/14 07:18:49;;;;;;;21.58;7.63;;;6.80;55.90;;;;;;7572033;23;20336;-68
2023/02/14 07:21:50;;;;;;;17.17;8.35;;;6.80;55.90;;;;;;7565850;23;20038;-67
2023/02/14 07:24:51;;;;;;;20.73;7.97;;;6.80;55.90;;;;;;7568204;23;20013;-67
2023/02/14 07:27:53;;;;;;;16.73;6.10;;;6.80;55.90;;;;;;7567144;23;20050;-66
2023/02/14 07:30:57;;;;;;;18.05;6.85;;;6.70;56.00;;;;;;7568690;23;20007;-66
2023/02/14 07:34:00;;;;;;;13.13;6.30;;;6.70;56.10;;;;;;7569306;23;20006;-67
2023/02/14 07:37:01;;;;;;;23.70;8.48;;;6.70;56.30;;;;;;7568360;23;20006;-66
2023/02/14 07:40:03;;;;;;;18.92;7.53;;;6.70;56.30;;;;;;7568002;23;20072;-66
2023/02/14 07:43:04;;;;;;;13.77;6.47;;;6.80;56.20;;;;;;7542931;23;20340;-67
2023/02/14 07:46:05;;;;;;;27.63;8.35;;;6.80;56.20;;;;;;7519074;23;20025;-66
2023/02/14 07:49:06;;;;;;;19.85;7.90;;;6.90;56.10;;;;;;7568748;23;20013;-69
2023/02/14 07:52:07;;;;;;;22.30;8.68;;;6.90;56.00;;;;;;7543236;23;20036;-68
2023/02/14 07:55:09;;;;;;;16.10;7.55;;;7.00;56.00;;;;;;7543127;23;20018;-67
2023/02/14 07:58:10;;;;;;;14.27;5.80;;;7.00;56.00;;;;;;7542895;23;20018;-68
2023/02/14 08:01:11;;;;;;;23.42;6.85;;;7.10;56.00;;;;;;7543060;23;20048;-65
2023/02/14 08:04:12;;;;;;;19.02;6.85;;;7.10;55.80;;;;;;7543434;23;20007;-67
2023/02/14 08:07:13;;;;;;;18.05;8.05;;;7.10;55.70;;;;;;7568090;23;20038;-66
2023/02/14 08:10:15;;;;;;;20.95;8.63;;;7.20;55.70;;;;;;7542931;23;20038;-66
2023/02/14 08:13:16;;;;;;;17.25;8.43;;;7.20;55.70;;;;;;7568460;23;20405;-67
2023/02/14 08:16:17;;;;;;;22.83;8.77;;;7.30;55.70;;;;;;7568646;23;20018;-66
2023/02/14 08:19:18;;;;;;;20.55;8.35;;;7.30;55.70;;;;;;7542309;23;20373;-66
2023/02/14 08:22:19;;;;;;;20.88;7.72;;;7.40;55.60;;;;;;7568330;23;20010;-67
2023/02/14 08:25:20;;;;;;;17.02;7.40;;;7.50;55.50;;;;;;7567329;23;20014;-66
2023/02/14 08:28:22;;;;;;;24.73;7.38;;;7.80;55.40;;;;;;7567572;23;20006;-68
2023/02/14 08:31:30;;;;;;;22.83;8.80;;;7.70;55.20;;;;;;7568170;23;20041;-67
2023/02/14 08:34:32;;;;;;;17.60;7.47;;;7.90;55.00;;;;;;7568359;23;20017;-67
2023/02/14 08:37:34;;;;;;;14.80;7.45;;;8.00;54.90;;;;;;7567765;23;20089;-67
2023/02/14 08:40:35;;;;;;;21.95;7.05;;;8.10;54.70;;;;;;7565972;23;20093;-67
2023/02/14 08:43:37;;;;;;;27.33;6.85;;;8.20;54.40;;;;;;7566376;23;20010;-67
2023/02/14 08:46:38;;;;;;;17.38;8.00;;;8.40;54.10;;;;;;7567865;23;20007;-68
2023/02/14 08:49:39;;;;;;;20.33;8.50;;;8.60;53.80;;;;;;7566040;23;20038;-68
2023/02/14 08:52:42;;;;;;;22.77;7.93;;;8.80;53.50;;;;;;7566258;23;20014;-69
2023/02/14 08:55:43;;;;;;;19.83;7.93;;;8.90;53.10;;;;;;7566013;23;20071;-67
2023/02/14 08:58:44;;;;;;;14.23;7.22;;;9.10;52.80;;;;;;7567864;23;20038;-67
2023/02/14 09:01:45;;;;;;;20.25;7.30;;;9.10;52.50;;;;;;7567505;23;20013;-66
2023/02/14 09:04:47;;;;;;;18.58;7.95;;;9.40;52.30;;;;;;7567449;23;20006;-67
2023/02/14 09:07:49;;;;;;;17.83;7.28;;;9.50;52.00;;;;;;7541525;23;20408;-67
2023/02/14 09:10:51;;;;;;;20.45;7.40;;;9.60;51.80;;;;;;7567154;23;20033;-67
2023/02/14 09:13:52;;;;;;;31.80;7.00;;;9.70;51.60;;;;;;7568683;23;20010;-69
2023/02/14 09:16:53;;;;;;;20.88;6.85;;;9.90;51.20;;;;;;7569545;23;20041;-66
2023/02/14 09:19:54;;;;;;;18.30;7.57;;;9.90;50.80;;;;;;7567533;23;20025;-66
2023/02/14 09:22:56;;;;;;;19.95;7.47;;;10.00;50.70;;;;;;7568826;23;20089;-68
2023/02/14 09:26:02;;;;;;;20.10;8.27;;;10.00;50.50;;;;;;7568441;23;20002;-68
2023/02/14 09:29:03;;;;;;;17.00;7.18;;;10.10;50.30;;;;;;7569001;23;20017;-68
2023/02/14 09:32:04;;;;;;;19.67;7.75;;;10.10;50.20;;;;;;7567047;23;20436;-67
2023/02/14 09:38:25;;;;;;;30.30;8.77;;;10.20;50.10;;;;;;7570133;23;20006;-67
2023/02/14 09:41:29;;;;;;;17.00;7.68;;;10.30;50.00;;;;;;7567364;23;20491;-67
2023/02/14 09:45:01;;;;;;;19.35;7.38;;;10.40;50.00;;;;;;7567078;23;20082;-69
2023/02/14 09:48:26;;;;;;;16.02;7.13;;;10.50;49.60;;;;;;7566345;23;20013;-68
2023/02/14 09:51:30;;;;;;;15.52;6.95;;;10.60;49.30;;;;;;7566761;23;20007;-66
2023/02/14 09:54:33;;;;;;;15.05;7.38;;;10.70;49.20;;;;;;7566515;23;20014;-67
2023/02/14 09:58:03;;;;;;;23.15;7.57;;;10.70;48.90;;;;;;7540659;23;20006;-68
2023/02/14 10:01:21;;;;;;;19.67;7.35;;;10.80;48.90;;;;;;7444247;23;20107;-68
2023/02/14 10:04:56;;;;;;;12.05;6.07;;;10.90;48.70;;;;;;7491183;23;20098;-68
2023/02/14 10:08:00;;;;;;;19.90;7.50;;;11.00;48.30;;;;;;7467431;23;20015;-68
2023/02/14 10:11:09;;;;;;;16.55;7.47;;;11.10;48.10;;;;;;7492139;23;20008;-68
2023/02/14 10:14:16;;;;;;;15.40;7.43;;;11.10;48.20;;;;;;7491998;23;20015;-66
2023/02/14 10:17:43;;;;;;;19.35;8.40;;;11.20;48.20;;;;;;7468456;23;20018;-68
2023/02/14 10:20:51;;;;;;;39.13;8.18;;;11.40;48.20;;;;;;7467933;23;20011;-65
2023/02/14 10:24:03;;;;;;;27.50;9.02;;;11.50;47.80;;;;;;7491038;23;20011;-67
2023/02/14 10:27:25;;;;;;;29.60;10.80;;;11.70;47.80;;;;;;7467837;23;20461;-65
2023/02/14 10:30:26;;;;;;;24.58;10.48;;;12.00;47.40;;;;;;7490843;23;20510;-67
2023/02/14 10:33:32;;;;;;;30.75;10.48;;;12.40;46.60;;;;;;7491185;23;20651;-66
2023/02/14 10:37:10;;;;;;;28.40;9.88;;;12.70;46.00;;;;;;7497829;23;20043;-67
2023/02/14 10:40:45;;;;;;;27.13;9.57;;;13.10;45.70;;;;;;7565869;23;20059;-68
2023/02/14 10:43:56;;;;;;;23.83;9.80;;;13.40;45.30;;;;;;7540507;23;20074;-68
2023/02/14 10:47:09;;;;;;;28.48;9.60;;;13.70;44.90;;;;;;7566483;23;20010;-66
2023/02/14 10:50:19;;;;;;;18.25;8.80;;;13.80;44.70;;;;;;7566379;23;20013;-67
2023/02/14 10:53:23;;;;;;;23.67;9.18;;;14.00;44.30;;;;;;7540943;23;20011;-67
2023/02/14 10:56:39;;;;;;;20.08;9.43;;;14.20;43.40;;;;;;7540404;23;20093;-67
2023/02/14 11:00:06;;;;;;;19.80;7.95;;;14.30;43.20;;;;;;7565191;23;20014;-68
2023/02/14 11:03:09;;;;;;;19.98;7.43;;;14.40;43.10;;;;;;7565736;23;20003;-68
2023/02/14 11:06:10;;;;;;;27.05;8.50;;;14.60;42.60;;;;;;7565703;23;20010;-67
2023/02/14 11:09:11;;;;;;;28.00;8.80;;;14.90;42.30;;;;;;7539609;23;20067;-66
2023/02/14 11:12:33;;;;;;;15.02;7.43;;;15.10;41.70;;;;;;7540201;23;20085;-66
2023/02/14 11:15:39;;;;;;;25.40;9.07;;;15.40;41.40;;;;;;7566244;23;20336;-67
2023/02/14 11:18:40;;;;;;;19.05;7.18;;;15.70;40.70;;;;;;7565694;23;20010;-66
2023/02/14 11:21:44;;;;;;;20.65;8.18;;;15.90;40.10;;;;;;7540897;23;20052;-66
2023/02/14 11:24:47;;;;;;;18.70;7.18;;;16.30;39.50;;;;;;7566335;23;20003;-68
2023/02/14 11:27:54;;;;;;;16.98;7.40;;;16.70;39.00;;;;;;7566436;23;20034;-67
2023/02/14 11:30:55;;;;;;;26.05;9.13;;;17.10;37.60;;;;;;7540862;23;20054;-66
2023/02/14 11:33:57;;;;;;;22.75;8.18;;;17.50;36.90;;;;;;7566142;23;20018;-67
2023/02/14 11:36:59;;;;;;;22.65;8.63;;;17.80;36.10;;;;;;7565554;23;20007;-67
2023/02/14 11:40:02;;;;;;;32.03;10.32;;;18.20;35.60;;;;;;7565979;23;20013;-67
2023/02/14 11:43:09;;;;;;;22.88;8.68;;;18.60;35.10;;;;;;7540771;23;20006;-67
2023/02/14 11:46:32;;;;;;;19.48;7.88;;;19.20;34.30;;;;;;7566124;23;20013;-67
2023/02/14 11:49:35;;;;;;;16.83;6.13;;;19.90;33.30;;;;;;7539692;23;20316;-67
2023/02/14 11:52:51;;;;;;;16.98;7.25;;;20.40;32.00;;;;;;7566080;23;20062;-67
2023/02/14 11:55:55;;;;;;;17.25;6.90;;;20.90;30.10;;;;;;7566475;23;20014;-66
2023/02/14 11:59:02;;;;;;;21.00;7.38;;;21.10;29.60;;;;;;7541335;23;20061;-67
2023/02/14 12:02:26;;;;;;;24.90;7.38;;;21.50;29.20;;;;;;7567861;23;20003;-66
2023/02/14 12:05:30;;;;;;;11.13;5.45;;;21.80;28.90;;;;;;7532453;23;20006;-67
2023/02/14 12:08:31;;;;;;;14.10;5.50;;;22.20;28.40;;;;;;7566139;23;20010;-66
2023/02/14 12:11:32;;;;;;;21.77;6.80;;;22.50;27.70;;;;;;7542855;23;20184;-68
2023/02/14 12:14:35;;;;;;;21.38;7.93;;;22.70;27.00;;;;;;7542816;23;20436;-67
2023/02/14 12:17:37;;;;;;;17.23;6.53;;;22.90;27.20;;;;;;7567816;23;20007;-66
2023/02/14 12:20:41;;;;;;;16.95;6.40;;;23.10;26.90;;;;;;7542187;23;20015;-67
2023/02/14 12:23:47;;;;;;;14.80;5.57;;;23.10;27.20;;;;;;7544785;23;20013;-67
2023/02/14 12:27:05;;;;;;;12.23;5.60;;;23.00;27.50;;;;;;7543248;23;20081;-68
2023/02/14 12:30:20;;;;;;;19.08;5.93;;;23.10;27.10;;;;;;7568543;23;20074;-68
2023/02/14 12:33:25;;;;;;;12.30;4.90;;;22.90;27.10;;;;;;7568350;23;20070;-66
2023/02/14 12:36:44;;;;;;;12.40;5.45;;;22.60;27.40;;;;;;7567876;23;20136;-66
2023/02/14 12:40:01;;;;;;;11.82;4.82;;;22.40;27.60;;;;;;7567026;23;20010;-67
2023/02/14 12:43:17;;;;;;;12.98;4.45;;;22.40;27.70;;;;;;7517859;23;20014;-68
2023/02/14 12:46:36;;;;;;;12.15;4.80;;;22.40;27.50;;;;;;7567655;23;20033;-68
2023/02/14 12:50:01;;;;;;;12.40;4.80;;;22.10;27.20;;;;;;7567766;23;20006;-66
2023/02/14 12:53:38;;;;;;;9.52;4.90;;;21.70;27.30;;;;;;7567577;23;20122;-66
2023/02/14 12:56:39;;;;;;;17.30;6.55;;;21.30;27.70;;;;;;7567375;23;20069;-67
2023/02/14 13:00:02;;;;;;;17.05;6.68;;;20.80;28.10;;;;;;7566890;23;20009;-68
2023/02/14 13:03:12;;;;;;;16.35;5.68;;;20.40;28.70;;;;;;7567156;23;20343;-66
2023/02/14 13:06:29;;;;;;;15.40;6.10;;;20.10;29.00;;;;;;7566906;23;20126;-66
2023/02/14 13:09:49;;;;;;;12.13;5.22;;;19.70;29.30;;;;;;7541234;23;20021;-67
2023/02/14 13:13:06;;;;;;;11.80;5.88;;;19.30;29.80;;;;;;7567566;23;20060;-68
2023/02/14 13:16:32;;;;;;;11.82;5.72;;;18.90;30.10;;;;;;7541801;23;20006;-67
2023/02/14 13:19:50;;;;;;;14.63;5.40;;;18.60;30.50;;;;;;7567122;23;20006;-67
2023/02/14 13:22:56;;;;;;;14.85;5.53;;;18.40;30.80;;;;;;7567193;23;20014;-67
2023/02/14 13:26:08;;;;;;;25.63;5.40;;;18.10;31.20;;;;;;7566987;23;20009;-67
2023/02/14 13:29:15;;;;;;;12.65;4.80;;;17.90;31.60;;;;;;7540923;23;20380;-66
2023/02/14 13:32:21;;;;;;;10.95;4.95;;;17.80;31.90;;;;;;7567275;23;20431;-67
2023/02/14 13:35:25;;;;;;;12.02;4.75;;;17.60;32.10;;;;;;7541341;23;20411;-66
2023/02/14 13:38:27;;;;;;;10.60;5.20;;;17.60;32.30;;;;;;7566575;23;20049;-67
2023/02/14 13:41:29;;;;;;;13.15;5.65;;;17.60;32.50;;;;;;7567156;23;20025;-67
2023/02/14 13:44:49;;;;;;;12.77;5.10;;;17.60;32.50;;;;;;7567235;23;20074;-66
2023/02/14 13:48:03;;;;;;;12.20;4.78;;;17.60;32.60;;;;;;7540941;23;20309;-66
2023/02/14 13:51:09;;;;;;;14.80;5.28;;;17.50;32.70;;;;;;7566464;23;20010;-67
2023/02/14 13:54:29;;;;;;;12.90;5.03;;;17.50;32.70;;;;;;7566269;23;20013;-66
2023/02/14 13:57:36;;;;;;;12.63;4.80;;;17.40;32.70;;;;;;7565628;23;20309;-66
2023/02/14 14:00:40;;;;;;;14.73;5.50;;;17.40;32.90;;;;;;7566349;23;20041;-66
2023/02/14 14:03:41;;;;;;;14.13;4.70;;;17.40;32.90;;;;;;7566392;23;20304;-68
2023/02/14 14:07:04;;;;;;;12.10;5.60;;;17.40;33.00;;;;;;7566541;23;20006;-67
2023/02/14 14:10:10;;;;;;;14.05;4.65;;;17.40;33.00;;;;;;7566644;23;20010;-66
2023/02/14 14:13:39;;;;;;;11.32;4.88;;;17.40;33.00;;;;;;7566886;23;20010;-66
2023/02/14 14:16:54;;;;;;;12.38;5.45;;;17.40;32.80;;;;;;7566802;23;20110;-68
2023/02/14 14:19:56;;;;;;;15.20;6.10;;;17.40;32.80;;;;;;7540570;23;20029;-67
2023/02/14 14:22:59;;;;;;;10.57;5.28;;;17.50;32.90;;;;;;7567055;23;20127;-67
2023/02/14 14:26:00;;;;;;;12.93;5.05;;;17.50;32.70;;;;;;7566358;23;20029;-67
2023/02/14 14:29:11;;;;;;;11.85;5.40;;;17.50;32.80;;;;;;7566089;23;20389;-67
2023/02/14 14:32:22;;;;;;;15.77;4.97;;;17.50;32.80;;;;;;7541175;23;20014;-67
2023/02/14 14:35:24;;;;;;;10.95;4.85;;;17.50;32.80;;;;;;7566640;23;20020;-66
2023/02/14 14:38:26;;;;;;;15.02;4.75;;;17.50;32.90;;;;;;7565819;23;20014;-67
2023/02/14 14:41:30;;;;;;;10.38;4.82;;;17.60;32.90;;;;;;7567304;23;20006;-66
2023/02/14 14:44:34;;;;;;;15.18;4.30;;;17.60;33.00;;;;;;7569767;23;20021;-68
2023/02/14 14:47:42;;;;;;;9.63;4.05;;;17.60;32.90;;;;;;7543109;23;20006;-67
2023/02/14 14:50:49;;;;;;;10.13;4.70;;;17.60;32.80;;;;;;7566670;23;20030;-69
2023/02/14 14:53:57;;;;;;;11.47;4.60;;;17.50;33.30;;;;;;7566461;23;20011;-67
2023/02/14 14:57:00;;;;;;;12.40;4.78;;;17.50;32.70;;;;;;7566441;23;20149;-68
2023/02/14 15:00:16;;;;;;;17.90;5.57;;;17.50;32.80;;;;;;7566508;23;20017;-67
2023/02/14 15:03:24;;;;;;;10.13;4.18;;;17.50;32.80;;;;;;7566694;23;20086;-67
2023/02/14 15:06:25;;;;;;;10.83;5.17;;;17.50;32.90;;;;;;7566239;23;20002;-67
2023/02/14 15:09:32;;;;;;;21.42;6.43;;;17.50;33.00;;;;;;7565813;23;20233;-65
2023/02/14 15:15:53;;;;;;;13.75;5.57;;;17.40;33.10;;;;;;7566361;23;20457;-67
2023/02/14 15:19:05;;;;;;;9.30;4.35;;;17.50;33.20;;;;;;7565747;23;20011;-66
2023/02/14 15:22:28;;;;;;;12.80;5.10;;;17.40;33.20;;;;;;7566088;23;20006;-68
2023/02/14 15:25:35;;;;;;;26.50;4.97;;;17.40;33.20;;;;;;7542442;23;20332;-66
2023/02/14 15:28:37;;;;;;;8.73;4.25;;;17.40;33.20;;;;;;7565603;23;20029;-67
2023/02/14 15:31:39;;;;;;;9.85;4.45;;;17.40;33.30;;;;;;7566602;23;20010;-67
2023/02/14 15:34:40;;;;;;;8.55;3.85;;;17.40;33.40;;;;;;7542937;23;20006;-66
2023/02/14 15:37:43;;;;;;;12.60;3.90;;;17.40;33.40;;;;;;7567469;23;20015;-66
2023/02/14 15:40:44;;;;;;;10.63;3.55;;;17.40;33.60;;;;;;7566518;23;20013;-67
2023/02/14 15:43:51;;;;;;;8.02;3.80;;;17.40;33.60;;;;;;7565935;23;20313;-66
2023/02/14 15:47:00;;;;;;;13.32;4.40;;;17.40;33.60;;;;;;7568280;23;20393;-66
2023/02/14 15:50:02;;;;;;;16.45;4.35;;;17.40;33.50;;;;;;7568397;23;20038;-67
2023/02/14 15:53:25;;;;;;;18.88;4.72;;;17.30;33.60;;;;;;7568135;23;20077;-66
2023/02/14 15:56:47;;;;;;;12.95;4.43;;;17.30;33.70;;;;;;7567851;23;20113;-67
2023/02/14 15:59:49;;;;;;;11.82;4.50;;;17.20;33.70;;;;;;7567423;23;20006;-69
2023/02/14 16:02:55;;;;;;;16.67;5.57;;;17.20;33.80;;;;;;7568043;23;20021;-67
2023/02/14 16:05:57;;;;;;;10.05;4.65;;;17.10;33.90;;;;;;7568137;23;20436;-66
2023/02/14 16:08:58;;;;;;;15.80;5.03;;;17.10;34.00;;;;;;7541878;23;20424;-67
2023/02/14 16:12:10;;;;;;;12.15;4.57;;;17.10;34.00;;;;;;7542811;23;20455;-68
2023/02/14 16:15:20;;;;;;;18.52;5.43;;;17.10;34.10;;;;;;7567545;23;20010;-67
2023/02/14 16:18:46;;;;;;;20.30;4.82;;;17.00;34.00;;;;;;7567222;23;20376;-66
2023/02/14 16:21:56;;;;;;;8.23;3.55;;;16.90;34.00;;;;;;7542251;23;20440;-66
2023/02/14 16:25:00;;;;;;;11.88;3.40;;;16.90;34.10;;;;;;7541913;23;20018;-67
2023/02/14 16:28:01;;;;;;;10.18;4.22;;;16.90;33.80;;;;;;7518165;23;20010;-68